createdAt,value
2017-09-11T00:01:06.892Z,14.80
2017-09-11T00:03:35.259Z,14.80
2017-09-11T00:06:03.687Z,14.70
2017-09-11T00:08:31.293Z,14.70
2017-09-11T00:10:59.717Z,14.50
2017-09-11T00:13:27.320Z,14.50
2017-09-11T00:15:54.936Z,14.60
2017-09-11T00:18:22.524Z,14.60
2017-09-11T00:20:50.169Z,14.70
2017-09-11T00:23:17.789Z,14.70
2017-09-11T00:25:46.167Z,14.70
2017-09-11T00:28:13.773Z,14.70
2017-09-11T00:30:41.410Z,14.70
2017-09-11T00:33:09.029Z,14.70
2017-09-11T00:35:36.640Z,14.70
2017-09-11T00:38:04.251Z,14.70
2017-09-11T00:40:31.896Z,14.70
2017-09-11T00:42:59.494Z,14.70
2017-09-11T00:45:27.122Z,14.80
2017-09-11T00:47:54.737Z,14.70
2017-09-11T00:50:22.328Z,14.60
2017-09-11T00:52:49.939Z,14.50
2017-09-11T00:55:18.296Z,14.40
2017-09-11T00:57:45.921Z,14.40
2017-09-11T01:00:13.520Z,14.40
2017-09-11T01:02:41.919Z,14.60
2017-09-11T01:05:10.280Z,14.70
2017-09-11T01:07:38.670Z,14.80
2017-09-11T01:10:07.027Z,14.70
2017-09-11T01:12:34.657Z,14.70
2017-09-11T01:15:02.254Z,14.50
2017-09-11T01:17:29.894Z,14.50
2017-09-11T01:19:57.492Z,14.70
2017-09-11T01:22:25.889Z,14.70
2017-09-11T01:24:53.478Z,14.70
2017-09-11T01:27:21.828Z,14.60
2017-09-11T01:29:49.421Z,14.50
2017-09-11T01:32:17.045Z,14.60
2017-09-11T01:34:44.644Z,14.60
2017-09-11T01:37:12.280Z,14.70
2017-09-11T01:39:39.901Z,14.60
2017-09-11T01:42:07.487Z,14.50
2017-09-11T01:44:35.872Z,14.50
2017-09-11T01:47:03.463Z,14.50
2017-09-11T01:49:31.077Z,14.50
2017-09-11T01:51:58.680Z,14.60
2017-09-11T01:54:26.313Z,14.50
2017-09-11T01:56:53.916Z,14.30
2017-09-11T01:59:21.528Z,14.40
2017-09-11T02:01:49.888Z,14.60
2017-09-11T02:04:18.281Z,14.60
2017-09-11T02:06:46.665Z,14.60
2017-09-11T02:09:15.044Z,14.50
2017-09-11T02:11:43.487Z,14.50
2017-09-11T02:14:11.100Z,14.50
2017-09-11T02:16:38.716Z,14.50
2017-09-11T02:19:06.433Z,14.50
2017-09-11T02:21:34.014Z,14.50
2017-09-11T02:24:02.995Z,14.50
2017-09-11T02:26:30.586Z,14.50
2017-09-11T02:28:58.222Z,14.50
2017-09-11T02:31:25.827Z,14.50
2017-09-11T02:33:54.223Z,14.60
2017-09-11T02:36:22.640Z,14.50
2017-09-11T02:38:50.229Z,14.50
2017-09-11T02:41:18.646Z,14.60
2017-09-11T02:43:46.676Z,14.60
2017-09-11T02:46:14.332Z,14.60
2017-09-11T02:48:41.945Z,14.60
2017-09-11T02:51:09.569Z,14.60
2017-09-11T02:53:37.156Z,14.50
2017-09-11T02:56:04.776Z,14.50
2017-09-11T02:58:32.378Z,14.60
2017-09-11T03:01:00.001Z,14.60
2017-09-11T03:03:27.583Z,14.60
2017-09-11T03:05:55.233Z,14.60
2017-09-11T03:08:22.841Z,14.60
2017-09-11T03:10:50.460Z,14.60
2017-09-11T03:13:18.811Z,14.70
2017-09-11T03:15:46.419Z,14.70
2017-09-11T03:18:14.045Z,14.70
2017-09-11T03:20:41.660Z,14.80
2017-09-11T03:23:09.261Z,14.80
2017-09-11T03:25:36.898Z,14.80
2017-09-11T03:28:04.484Z,14.80
2017-09-11T03:30:32.126Z,14.80
2017-09-11T03:32:59.714Z,14.90
2017-09-11T03:35:27.310Z,14.90
2017-09-11T03:37:54.935Z,14.90
2017-09-11T03:40:22.522Z,14.90
2017-09-11T03:42:50.917Z,14.90
2017-09-11T03:45:18.508Z,14.80
2017-09-11T03:47:46.126Z,14.90
2017-09-11T03:50:13.739Z,14.80
2017-09-11T03:52:42.145Z,14.80
2017-09-11T03:55:10.516Z,14.80
2017-09-11T03:57:38.169Z,14.80
2017-09-11T04:00:05.768Z,14.80
2017-09-11T04:02:33.396Z,14.80
2017-09-11T04:05:00.991Z,14.80
2017-09-11T04:07:28.622Z,14.80
2017-09-11T04:09:56.985Z,14.90
2017-09-11T04:12:24.622Z,14.80
2017-09-11T04:14:53.575Z,14.90
2017-09-11T04:17:21.958Z,14.90
2017-09-11T04:19:49.579Z,14.80
2017-09-11T04:22:17.179Z,14.90
2017-09-11T04:24:44.785Z,14.90
2017-09-11T04:27:12.420Z,14.90
2017-09-11T04:29:40.500Z,14.90
2017-09-11T04:32:08.091Z,14.90
2017-09-11T04:34:35.709Z,14.90
2017-09-11T04:37:03.318Z,15.00
2017-09-11T04:39:30.941Z,15.00
2017-09-11T04:41:58.540Z,15.00
2017-09-11T04:44:26.946Z,15.00
2017-09-11T04:46:55.770Z,15.00
2017-09-11T04:49:23.388Z,15.00
2017-09-11T04:51:51.767Z,14.90
2017-09-11T04:54:20.162Z,14.90
2017-09-11T04:56:48.534Z,14.80
2017-09-11T04:59:18.007Z,14.70
2017-09-11T05:01:45.601Z,14.70
2017-09-11T05:04:13.975Z,14.70
2017-09-11T05:06:42.343Z,14.80
2017-09-11T05:09:10.776Z,14.80
2017-09-11T05:11:38.373Z,14.80
2017-09-11T05:14:05.996Z,14.80
2017-09-11T05:16:33.610Z,14.80
2017-09-11T05:19:02.512Z,14.90
2017-09-11T05:21:30.873Z,14.70
2017-09-11T05:23:59.232Z,14.80
2017-09-11T05:26:26.860Z,14.70
2017-09-11T05:28:54.515Z,14.90
2017-09-11T05:31:22.137Z,14.80
2017-09-11T05:33:49.760Z,14.80
2017-09-11T05:36:17.377Z,14.70
2017-09-11T05:38:45.768Z,15.00
2017-09-11T05:41:13.390Z,15.00
2017-09-11T05:43:40.983Z,15.00
2017-09-11T05:46:09.359Z,15.10
2017-09-11T05:48:36.960Z,15.10
2017-09-11T05:51:04.601Z,15.00
2017-09-11T05:53:32.253Z,15.00
2017-09-11T05:55:59.875Z,15.10
2017-09-11T05:58:28.300Z,15.20
2017-09-11T06:00:55.919Z,15.20
2017-09-11T06:03:23.511Z,15.20
2017-09-11T06:05:51.906Z,15.20
2017-09-11T06:08:19.509Z,15.20
2017-09-11T06:10:47.119Z,15.30
2017-09-11T06:13:14.727Z,15.20
2017-09-11T06:15:43.115Z,15.10
2017-09-11T06:18:10.721Z,15.10
2017-09-11T06:20:38.320Z,14.90
2017-09-11T06:23:06.049Z,14.90
2017-09-11T06:25:33.648Z,14.90
2017-09-11T06:28:01.282Z,14.90
2017-09-11T06:30:28.908Z,14.80
2017-09-11T06:32:56.529Z,14.80
2017-09-11T06:35:27.342Z,14.80
2017-09-11T06:37:54.974Z,14.80
2017-09-11T06:40:23.333Z,14.60
2017-09-11T06:42:50.939Z,14.50
2017-09-11T06:45:18.528Z,14.70
2017-09-11T06:47:46.173Z,14.80
2017-09-11T06:50:13.795Z,14.80
2017-09-11T06:52:42.700Z,14.70
2017-09-11T06:55:11.087Z,14.60
2017-09-11T06:57:38.706Z,14.60
2017-09-11T07:00:06.360Z,14.70
2017-09-11T07:02:33.974Z,14.50
2017-09-11T07:05:02.196Z,14.60
2017-09-11T07:07:29.811Z,14.50
2017-09-11T07:09:58.687Z,14.70
2017-09-11T07:12:38.327Z,14.70
2017-09-11T07:15:06.698Z,14.80
2017-09-11T07:17:34.377Z,14.80
2017-09-11T07:20:02.753Z,14.80
2017-09-11T07:22:31.134Z,14.90
2017-09-11T07:24:59.517Z,14.80
2017-09-11T07:27:27.142Z,14.80
2017-09-11T07:29:54.752Z,14.80
2017-09-11T07:32:22.340Z,14.80
2017-09-11T07:34:49.960Z,14.80
2017-09-11T07:37:17.570Z,14.60
2017-09-11T07:39:45.185Z,14.60
2017-09-11T07:42:12.785Z,14.70
2017-09-11T07:44:40.414Z,14.90
2017-09-11T07:47:08.015Z,14.90
2017-09-11T07:49:35.632Z,15.00
2017-09-11T07:52:03.262Z,15.00
2017-09-11T07:54:31.652Z,15.00
2017-09-11T07:57:00.035Z,15.10
2017-09-11T07:59:28.421Z,15.00
2017-09-11T08:01:56.039Z,15.00
2017-09-11T08:04:23.660Z,15.10
2017-09-11T08:06:51.274Z,15.20
2017-09-11T08:09:18.916Z,15.20
2017-09-11T08:11:46.594Z,15.30
2017-09-11T08:14:14.211Z,15.40
2017-09-11T08:16:41.809Z,15.50
2017-09-11T08:19:09.429Z,15.50
2017-09-11T08:21:37.029Z,15.50
2017-09-11T08:24:04.641Z,15.40
2017-09-11T08:26:32.276Z,15.50
2017-09-11T08:29:00.641Z,15.60
2017-09-11T08:31:28.263Z,15.50
2017-09-11T08:33:55.860Z,15.50
2017-09-11T08:36:23.528Z,15.50
2017-09-11T08:38:51.128Z,15.50
2017-09-11T08:41:18.771Z,15.70
2017-09-11T08:43:47.152Z,15.60
2017-09-11T08:46:15.550Z,15.70
2017-09-11T08:48:43.147Z,15.70
2017-09-11T08:51:10.789Z,15.60
2017-09-11T08:53:38.379Z,15.50
2017-09-11T08:58:40.076Z,15.60
2017-09-11T09:01:07.699Z,15.50
2017-09-11T09:03:35.305Z,15.50
2017-09-11T09:06:03.696Z,15.60
2017-09-11T09:08:31.288Z,15.60
2017-09-11T09:10:58.918Z,15.80
2017-09-11T09:13:26.510Z,16.00
2017-09-11T09:15:54.139Z,16.10
2017-09-11T09:18:21.773Z,16.10
2017-09-11T09:20:50.145Z,16.00
2017-09-11T09:23:17.776Z,16.00
2017-09-11T09:25:47.660Z,16.10
2017-09-11T09:28:16.431Z,16.20
2017-09-11T09:30:51.213Z,16.10
2017-09-11T09:33:19.248Z,16.10
2017-09-11T09:35:46.853Z,16.00
2017-09-11T09:38:14.464Z,16.00
2017-09-11T09:40:42.091Z,16.00
2017-09-11T09:43:09.709Z,16.10
2017-09-11T09:45:37.345Z,16.10
2017-09-11T09:48:05.739Z,16.00
2017-09-11T09:50:33.337Z,16.10
2017-09-11T09:53:00.957Z,16.00
2017-09-11T09:55:28.737Z,16.00
2017-09-11T09:57:56.347Z,15.90
2017-09-11T10:00:23.935Z,15.80
2017-09-11T10:02:51.566Z,15.80
2017-09-11T10:05:19.944Z,15.70
2017-09-11T10:07:47.560Z,15.70
2017-09-11T10:10:15.168Z,15.70
2017-09-11T10:12:42.820Z,15.80
2017-09-11T10:15:11.200Z,15.70
2017-09-11T10:18:07.987Z,15.70
2017-09-11T10:20:35.645Z,15.90
2017-09-11T10:23:03.240Z,16.00
2017-09-11T10:25:30.868Z,16.00
2017-09-11T10:27:58.474Z,16.20
2017-09-11T10:30:26.144Z,16.30
2017-09-11T10:32:53.777Z,16.20
2017-09-11T10:35:21.416Z,16.30
2017-09-11T10:37:49.025Z,16.30
2017-09-11T10:40:16.657Z,16.50
2017-09-11T10:42:44.285Z,16.40
2017-09-11T10:45:12.669Z,16.60
2017-09-11T10:47:41.027Z,16.60
2017-09-11T10:50:08.694Z,16.60
2017-09-11T10:52:36.307Z,16.90
2017-09-11T10:55:03.958Z,17.00
2017-09-11T10:57:31.574Z,17.00
2017-09-11T10:59:59.979Z,17.30
2017-09-11T11:02:27.577Z,17.30
2017-09-11T11:04:55.198Z,17.40
2017-09-11T11:07:22.839Z,17.30
2017-09-11T11:09:51.188Z,17.40
2017-09-11T11:12:19.269Z,17.30
2017-09-11T11:14:46.864Z,17.50
2017-09-11T11:17:15.263Z,17.40
2017-09-11T11:19:42.905Z,17.40
2017-09-11T11:22:11.300Z,17.50
2017-09-11T11:24:38.885Z,17.40
2017-09-11T11:27:06.509Z,17.50
2017-09-11T11:29:34.130Z,17.40
2017-09-11T11:32:01.760Z,17.50
2017-09-11T11:34:30.216Z,17.70
2017-09-11T11:36:57.836Z,17.70
2017-09-11T11:39:25.442Z,17.90
2017-09-11T11:41:53.078Z,17.90
2017-09-11T11:44:21.452Z,17.90
2017-09-11T11:46:49.083Z,17.90
2017-09-11T11:49:16.682Z,18.00
2017-09-11T11:51:45.065Z,17.80
2017-09-11T11:54:12.671Z,17.70
2017-09-11T11:56:40.285Z,17.90
2017-09-11T11:59:08.665Z,17.70
2017-09-11T12:01:41.033Z,17.60
2017-09-11T12:04:09.520Z,17.50
2017-09-11T12:06:37.882Z,17.70
2017-09-11T12:09:06.300Z,17.70
2017-09-11T12:11:33.900Z,17.70
2017-09-11T12:14:01.528Z,17.70
2017-09-11T12:16:29.144Z,17.60
2017-09-11T12:18:56.755Z,17.60
2017-09-11T12:21:24.362Z,17.70
2017-09-11T12:23:51.988Z,17.70
2017-09-11T12:26:19.600Z,17.70
2017-09-11T12:28:48.438Z,17.90
2017-09-11T12:31:16.457Z,17.90
2017-09-11T12:33:44.845Z,17.40
2017-09-11T12:36:13.227Z,17.30
2017-09-11T12:38:41.613Z,17.20
2017-09-11T12:41:09.996Z,17.20
2017-09-11T12:43:37.616Z,17.20
2017-09-11T12:46:05.219Z,17.20
2017-09-11T12:48:32.848Z,17.30
2017-09-11T12:51:00.491Z,17.40
2017-09-11T12:53:28.103Z,17.60
2017-09-11T12:55:55.706Z,17.70
2017-09-11T12:58:23.332Z,17.80
2017-09-11T13:00:51.372Z,17.90
2017-09-11T13:03:19.732Z,17.90
2017-09-11T13:05:47.350Z,17.90
2017-09-11T13:08:14.993Z,18.10
2017-09-11T13:10:42.637Z,18.10
2017-09-11T13:13:11.000Z,18.10
2017-09-11T13:15:38.611Z,18.10
2017-09-11T13:18:07.476Z,18.10
2017-09-11T13:20:35.114Z,18.20
2017-09-11T13:23:03.475Z,18.50
2017-09-11T13:25:31.305Z,18.40
2017-09-11T13:27:59.739Z,18.50
2017-09-11T13:30:27.369Z,18.50
2017-09-11T13:32:54.960Z,18.60
2017-09-11T13:35:22.593Z,18.60
2017-09-11T13:37:50.186Z,18.50
2017-09-11T13:40:18.554Z,18.40
2017-09-11T13:42:46.177Z,18.40
2017-09-11T13:45:13.830Z,18.40
2017-09-11T13:47:41.456Z,18.50
2017-09-11T13:50:09.852Z,18.50
2017-09-11T13:52:37.456Z,18.50
2017-09-11T13:55:05.050Z,18.50
2017-09-11T13:57:33.449Z,18.40
2017-09-11T14:00:01.817Z,18.50
2017-09-11T14:02:30.204Z,18.60
2017-09-11T14:04:57.804Z,18.60
2017-09-11T14:07:25.441Z,18.60
2017-09-11T14:09:53.045Z,18.70
2017-09-11T14:12:20.668Z,18.70
2017-09-11T14:14:48.278Z,18.60
2017-09-11T14:17:15.902Z,18.40
2017-09-11T14:19:43.514Z,18.40
2017-09-11T14:22:11.927Z,18.30
2017-09-11T14:24:39.933Z,18.30
2017-09-11T14:27:07.539Z,18.20
2017-09-11T14:29:35.898Z,18.20
2017-09-11T14:32:03.519Z,18.20
2017-09-11T14:34:31.108Z,18.30
2017-09-11T14:36:59.521Z,18.20
2017-09-11T14:39:27.115Z,18.20
2017-09-11T14:41:55.898Z,18.30
2017-09-11T14:44:23.717Z,18.30
2017-09-11T14:46:52.104Z,18.10
2017-09-11T14:49:20.486Z,18.20
2017-09-11T14:51:48.876Z,18.20
2017-09-11T14:54:16.519Z,18.20
2017-09-11T14:56:45.034Z,18.30
2017-09-11T14:59:12.772Z,18.30
2017-09-11T15:01:40.507Z,18.20
2017-09-11T15:04:08.120Z,18.40
2017-09-11T15:06:35.752Z,18.40
2017-09-11T15:09:04.132Z,18.40
2017-09-11T15:11:32.484Z,18.30
2017-09-11T15:14:00.112Z,18.30
2017-09-11T15:16:27.717Z,18.30
2017-09-11T15:18:55.354Z,18.20
2017-09-11T15:21:22.944Z,18.30
2017-09-11T15:23:50.560Z,18.30
2017-09-11T15:26:18.166Z,18.20
2017-09-11T15:28:46.554Z,18.20
2017-09-11T15:31:15.658Z,18.10
2017-09-11T15:33:44.057Z,18.10
2017-09-11T15:36:11.653Z,18.10
2017-09-11T15:38:39.263Z,18.00
2017-09-11T15:41:06.864Z,18.10
2017-09-11T15:43:34.485Z,18.00
2017-09-11T15:46:02.092Z,17.90
2017-09-11T15:48:29.700Z,18.00
2017-09-11T15:50:57.320Z,17.90
2017-09-11T15:53:24.946Z,17.90
2017-09-11T15:55:52.818Z,17.80
2017-09-11T15:58:20.471Z,17.70
2017-09-11T16:00:48.087Z,17.80
2017-09-11T16:03:15.682Z,17.80
2017-09-11T16:05:43.696Z,17.90
2017-09-11T16:08:12.086Z,17.70
2017-09-11T16:10:39.695Z,17.70
2017-09-11T16:13:07.298Z,17.70
2017-09-11T16:15:34.939Z,17.60
2017-09-11T16:18:02.539Z,17.60
2017-09-11T16:20:30.174Z,17.60
2017-09-11T16:23:04.926Z,17.50
2017-09-11T16:25:32.581Z,17.40
2017-09-11T16:28:00.940Z,17.40
2017-09-11T16:30:28.568Z,17.40
2017-09-11T16:32:56.189Z,17.40
2017-09-11T16:35:23.821Z,17.40
2017-09-11T16:37:51.416Z,17.40
2017-09-11T16:40:19.812Z,17.30
2017-09-11T16:42:48.174Z,17.20
2017-09-11T16:45:15.805Z,17.20
2017-09-11T16:47:43.401Z,17.30
2017-09-11T16:50:10.992Z,17.30
2017-09-11T16:52:38.612Z,17.30
2017-09-11T16:55:06.226Z,17.20
2017-09-11T16:57:33.849Z,17.20
2017-09-11T17:00:01.461Z,17.20
2017-09-11T17:02:30.202Z,17.10
2017-09-11T17:04:58.032Z,17.10
2017-09-11T17:07:25.668Z,17.00
2017-09-11T17:09:53.274Z,17.00
2017-09-11T17:12:20.901Z,17.00
2017-09-11T17:14:48.489Z,16.90
2017-09-11T17:17:16.111Z,17.00
2017-09-11T17:19:43.696Z,17.00
2017-09-11T17:22:11.317Z,16.80
2017-09-11T17:24:38.920Z,16.90
2017-09-11T17:27:06.537Z,16.80
2017-09-11T17:29:34.146Z,16.70
2017-09-11T17:32:01.785Z,16.70
2017-09-11T17:34:29.365Z,16.70
2017-09-11T17:36:56.990Z,16.60
2017-09-11T17:39:25.018Z,16.50
2017-09-11T17:41:53.334Z,16.50
2017-09-11T17:44:20.960Z,16.40
2017-09-11T17:46:49.370Z,16.40
2017-09-11T17:49:16.983Z,16.30
2017-09-11T17:51:44.582Z,16.30
2017-09-11T17:54:12.209Z,16.20
2017-09-11T17:56:39.839Z,16.20
2017-09-11T17:59:07.452Z,16.30
2017-09-11T18:01:35.823Z,16.30
2017-09-11T18:04:03.429Z,16.20
2017-09-11T18:06:31.024Z,16.10
2017-09-11T18:08:58.660Z,16.10
2017-09-11T18:11:26.264Z,16.20
2017-09-11T18:13:53.906Z,16.10
2017-09-11T18:16:21.495Z,16.20
2017-09-11T18:18:49.156Z,16.30
2017-09-11T18:21:17.515Z,16.20
2017-09-11T18:23:45.123Z,16.20
2017-09-11T18:26:12.725Z,16.10
2017-09-11T18:28:40.350Z,16.20
2017-09-11T18:31:07.951Z,16.10
2017-09-11T18:33:35.541Z,16.10
2017-09-11T18:36:03.190Z,16.10
2017-09-11T18:38:30.794Z,16.00
2017-09-11T18:40:58.411Z,16.00
2017-09-11T18:43:26.816Z,15.90
2017-09-11T18:45:55.182Z,15.80
2017-09-11T18:48:23.544Z,15.80
2017-09-11T18:50:51.170Z,15.80
2017-09-11T18:53:18.764Z,15.80
2017-09-11T18:55:46.390Z,15.80
2017-09-11T18:58:14.001Z,15.80
2017-09-11T19:00:42.375Z,15.70
2017-09-11T19:03:10.733Z,15.70
2017-09-11T19:05:38.393Z,15.60
2017-09-11T19:08:05.995Z,15.70
2017-09-11T19:10:33.611Z,15.70
2017-09-11T19:13:01.208Z,15.70
2017-09-11T19:15:29.593Z,15.70
2017-09-11T19:17:57.184Z,15.70
2017-09-11T19:20:24.794Z,15.70
2017-09-11T19:22:53.157Z,15.60
2017-09-11T19:25:20.789Z,15.60
2017-09-11T19:27:48.377Z,15.60
2017-09-11T19:30:16.001Z,15.60
2017-09-11T19:32:43.611Z,15.60
2017-09-11T19:35:11.206Z,15.70
2017-09-11T19:37:38.827Z,15.70
2017-09-11T19:40:06.439Z,15.70
2017-09-11T19:42:34.081Z,15.60
2017-09-11T19:45:01.677Z,15.70
2017-09-11T19:47:29.297Z,15.60
2017-09-11T19:49:57.671Z,15.70
2017-09-11T19:52:26.091Z,15.70
2017-09-11T19:54:53.688Z,15.70
2017-09-11T19:57:22.108Z,15.50
2017-09-11T19:59:49.703Z,15.50
2017-09-11T20:02:17.329Z,15.60
2017-09-11T20:04:44.919Z,15.60
2017-09-11T20:07:12.544Z,15.60
2017-09-11T20:09:40.132Z,15.50
2017-09-11T20:12:07.797Z,15.50
2017-09-11T20:14:35.396Z,15.50
2017-09-11T20:17:03.018Z,15.60
2017-09-11T20:19:30.624Z,15.50
2017-09-11T20:21:59.021Z,15.50
2017-09-11T20:24:27.375Z,15.50
2017-09-11T20:26:55.018Z,15.50
2017-09-11T20:29:22.604Z,15.50
2017-09-11T20:31:51.001Z,15.50
2017-09-11T20:34:18.601Z,15.40
2017-09-11T20:36:46.222Z,15.50
2017-09-11T20:39:14.589Z,15.40
2017-09-11T20:41:42.949Z,15.50
2017-09-11T20:44:10.572Z,15.50
2017-09-11T20:46:38.179Z,15.60
2017-09-11T20:49:05.788Z,15.60
2017-09-11T20:51:33.376Z,15.60
2017-09-11T20:54:00.984Z,15.60
2017-09-11T20:56:28.582Z,15.70
2017-09-11T20:58:56.205Z,15.70
2017-09-11T21:01:23.804Z,15.70
2017-09-11T21:03:51.433Z,15.50
2017-09-11T21:06:19.045Z,15.60
2017-09-11T21:08:46.670Z,15.40
2017-09-11T21:11:14.308Z,15.40
2017-09-11T21:13:42.703Z,15.30
2017-09-11T21:16:10.303Z,15.30
2017-09-11T21:18:37.895Z,15.30
2017-09-11T21:21:06.311Z,15.40
2017-09-11T21:23:33.915Z,15.40
2017-09-11T21:26:01.532Z,15.40
2017-09-11T21:28:29.120Z,15.40
2017-09-11T21:30:56.750Z,15.30
2017-09-11T21:33:24.338Z,15.40
2017-09-11T21:35:51.968Z,15.50
2017-09-11T21:38:19.904Z,15.50
2017-09-11T21:40:48.283Z,15.40
2017-09-11T21:43:16.650Z,15.40
2017-09-11T21:45:44.283Z,15.40
2017-09-11T21:48:11.877Z,15.40
2017-09-11T21:50:39.507Z,15.40
2017-09-11T21:53:07.109Z,15.50
2017-09-11T21:55:35.488Z,15.40
2017-09-11T21:58:03.855Z,15.40
2017-09-11T22:00:32.280Z,15.40
2017-09-11T22:02:59.900Z,15.30
2017-09-11T22:05:28.279Z,15.40
2017-09-11T22:07:56.645Z,15.40
2017-09-11T22:10:24.247Z,15.40
2017-09-11T22:12:51.852Z,15.40
2017-09-11T22:15:19.471Z,15.40
2017-09-11T22:17:47.102Z,15.40
2017-09-11T22:20:15.464Z,15.30
2017-09-11T22:22:43.096Z,15.30
2017-09-11T22:25:10.713Z,15.30
2017-09-11T22:27:39.114Z,15.40
2017-09-11T22:30:06.713Z,15.40
2017-09-11T22:32:34.329Z,15.40
2017-09-11T22:35:01.926Z,15.20
2017-09-11T22:37:29.564Z,15.30
2017-09-11T22:39:57.161Z,15.30
2017-09-11T22:42:24.837Z,15.30
2017-09-11T22:44:52.423Z,15.30
2017-09-11T22:47:20.800Z,15.10
2017-09-11T22:49:48.440Z,15.10
2017-09-11T22:52:16.836Z,15.20
2017-09-11T22:54:45.237Z,15.20
2017-09-11T22:57:12.864Z,15.20
2017-09-11T22:59:40.482Z,15.10
2017-09-11T23:02:08.096Z,15.20
2017-09-11T23:04:36.461Z,15.20
2017-09-11T23:07:04.091Z,15.20
2017-09-11T23:09:31.716Z,15.20
2017-09-11T23:12:00.106Z,15.20
2017-09-11T23:14:27.741Z,15.20
2017-09-11T23:16:56.111Z,15.30
2017-09-11T23:19:23.728Z,15.30
2017-09-11T23:21:52.343Z,15.20
2017-09-11T23:24:19.963Z,15.10
2017-09-11T23:26:47.574Z,15.10
2017-09-11T23:29:15.196Z,15.20
2017-09-11T23:31:42.782Z,15.20
2017-09-11T23:34:10.387Z,15.30
2017-09-11T23:36:37.992Z,15.30
2017-09-11T23:39:05.649Z,15.30
2017-09-11T23:41:33.304Z,15.40
2017-09-11T23:44:00.934Z,15.50
2017-09-11T23:46:28.537Z,15.50
2017-09-11T23:48:56.164Z,15.40
2017-09-11T23:51:23.772Z,15.40
2017-09-11T23:53:51.396Z,15.40
2017-09-11T23:56:19.025Z,15.30
2017-09-11T23:58:47.416Z,15.10
